Tenerife > ESTACION METEOROLÓGICA Galería de Vergara - La Guancha

DATOS ACTUALES Online

Ultima actulizacion 28 minutos

14.1 ºC

Temperatura

37

Humedad (%)

856.96

Presión (mb)

0

Precipitación (mm)

9 N

Viento (Km/h)

DATOS DIARIOS

Temperatura últimas 24 horas (ºC)

Humedad últimas 24 horas (%)

Presión atmosférica últimas 24 horas (mb)

Precipitaciones últimas 23 horas (mm)

Viento últimas 24 horas (Km/h)

Hora Temperatura (°C) ºC Precipitación (mm) mm Presión (mb) mb Humedad (%) % Viento (Km/h) km/h
19 - 11:00 11.8 0 856 77 7 N
19 - 12:00 12.5 0 856 72 8.6 NO
19 - 13:00 13.3 0 855 67 10.6 N
19 - 14:00 12.8 0 855 72 12.6 NW
19 - 15:00 13.1 0 855 64 6.2 NW
19 - 16:00 13.9 0 855 62 5.6 W
19 - 17:00 12.4 0 855 69 3.4 NW
19 - 18:00 9.1 0 856 85 10.8 S
19 - 19:00 8 0 856 79 8 S
19 - 20:00 7.6 0 856 76 10.2 S
19 - 21:00 7.3 0 857 75 11.3 S
19 - 22:00 7 0 857 74 14.8 SO
19 - 23:00 6.8 0 857 74 9.5 S
20 - 00:00 6.5 0 857 74 16.8 SO
20 - 01:00 6.8 0 856 69 13.5 S
20 - 02:00 6.8 0 856 71 14.4 S
20 - 03:00 6.8 0 856 71 15.6 SO
20 - 04:00 7.2 0 855 65 16.6 SO
20 - 05:00 6.5 0 855 66 19.5 SO
20 - 06:00 6.9 0 855 61 17.9 SO
20 - 07:00 7.3 0 855 59 13.9 S
20 - 08:00 8.1 0 856 56 10.6 SO
20 - 09:00 9.6 0 856 58 8.4 S
20 - 10:00 13.3 0 857 43 4.6 S
20 - 11:00 14.1 0 857 37 9 N
Apalmet utiliza cookies propias y de terceros para mejorar la usabilidad y la experiencia web. Política de cookies.